createdAt,value
2023-04-25T00:01:27.593Z,26.88
2023-04-25T00:03:58.443Z,28.90
2023-04-25T00:09:00.359Z,28.40
2023-04-25T00:11:30.765Z,29.03
2023-04-25T00:14:01.086Z,29.13
2023-04-25T00:16:32.495Z,27.10
2023-04-25T00:19:03.235Z,28.65
2023-04-25T00:21:35.011Z,29.75
2023-04-25T00:24:05.637Z,28.98
2023-04-25T00:26:36.941Z,30.93
2023-04-25T00:29:07.378Z,29.65
2023-04-25T00:31:37.690Z,30.13
2023-04-25T00:34:08.177Z,28.80
2023-04-25T00:36:40.281Z,29.63
2023-04-25T00:39:10.569Z,31.45
2023-04-25T00:41:41.138Z,29.42
2023-04-25T00:44:16.925Z,31.50
2023-04-25T00:46:48.184Z,30.17
2023-04-25T00:49:20.275Z,30.05
2023-04-25T00:51:50.679Z,28.50
2023-04-25T00:54:20.947Z,28.10
2023-04-25T00:56:51.269Z,27.83
2023-04-25T00:59:23.652Z,30.83
2023-04-25T01:01:54.355Z,31.02
2023-04-25T01:04:25.495Z,29.88
2023-04-25T01:09:26.924Z,27.73
2023-04-25T01:11:57.362Z,30.23
2023-04-25T01:14:27.780Z,26.08
2023-04-25T01:16:58.352Z,28.30
2023-04-25T01:19:29.362Z,28.05
2023-04-25T01:22:01.041Z,29.73
2023-04-25T01:24:32.927Z,29.40
2023-04-25T01:27:05.605Z,29.53
2023-04-25T01:29:36.945Z,29.15
2023-04-25T01:32:09.267Z,28.83
2023-04-25T01:34:39.711Z,28.10
2023-04-25T01:37:09.826Z,28.13
2023-04-25T01:39:40.114Z,26.27
2023-04-25T01:42:10.734Z,27.48
2023-04-25T01:44:41.576Z,26.97
2023-04-25T01:47:12.026Z,24.85
2023-04-25T01:49:42.409Z,25.42
2023-04-25T01:52:12.713Z,25.08
2023-04-25T01:54:47.406Z,25.25
2023-04-25T01:57:19.531Z,24.63
2023-04-25T01:59:50.705Z,24.73
2023-04-25T02:02:41.324Z,24.27
2023-04-25T02:05:24.256Z,24.13
2023-04-25T02:07:55.488Z,24.55
2023-04-25T02:10:28.670Z,23.02
2023-04-25T02:13:10.800Z,22.80
2023-04-25T02:16:07.223Z,22.75
2023-04-25T02:18:37.703Z,23.80
2023-04-25T02:21:10.082Z,22.83
2023-04-25T02:23:40.546Z,22.73
2023-04-25T02:26:10.656Z,22.42
2023-04-25T02:28:40.960Z,22.40
2023-04-25T02:31:11.285Z,22.88
2023-04-25T02:33:42.250Z,23.27
2023-04-25T02:36:12.604Z,23.10
2023-04-25T02:38:43.121Z,23.73
2023-04-25T02:41:13.543Z,23.50
2023-04-25T02:43:43.840Z,24.67
2023-04-25T02:46:14.667Z,22.63
2023-04-25T02:48:45.002Z,25.02
2023-04-25T02:51:15.907Z,22.58
2023-04-25T02:53:48.220Z,23.45
2023-04-25T02:56:18.619Z,24.70
2023-04-25T02:58:49.002Z,21.73
2023-04-25T03:01:19.405Z,22.33
2023-04-25T03:03:50.289Z,21.87
2023-04-25T03:06:20.815Z,23.88
2023-04-25T03:08:51.118Z,24.10
2023-04-25T03:11:23.568Z,24.13
2023-04-25T03:13:53.915Z,21.98
2023-04-25T03:16:25.026Z,26.40
2023-04-25T03:18:55.436Z,24.65
2023-04-25T03:21:25.926Z,24.73
2023-04-25T03:23:56.390Z,26.67
2023-04-25T03:26:26.946Z,25.45
2023-04-25T03:28:57.218Z,26.93
2023-04-25T03:31:27.463Z,26.17
2023-04-25T03:33:58.020Z,26.20
2023-04-25T03:36:28.292Z,26.70
2023-04-25T03:38:58.927Z,24.20
2023-04-25T03:41:31.301Z,25.60
2023-04-25T03:44:07.492Z,24.50
2023-04-25T03:46:38.801Z,24.83
2023-04-25T03:49:09.304Z,26.52
2023-04-25T03:51:59.940Z,25.73
2023-04-25T03:54:31.816Z,25.25
2023-04-25T03:57:28.363Z,25.52
2023-04-25T03:59:58.964Z,25.83
2023-04-25T04:02:31.370Z,24.85
2023-04-25T04:05:02.590Z,25.55
2023-04-25T04:07:33.335Z,25.42
2023-04-25T04:10:06.037Z,26.08
2023-04-25T04:12:40.661Z,23.70
2023-04-25T04:17:42.206Z,24.10
2023-04-25T04:20:13.251Z,25.60
2023-04-25T04:22:44.592Z,25.40
2023-04-25T04:25:17.319Z,25.70
2023-04-25T04:28:23.582Z,24.83
2023-04-25T04:30:58.928Z,24.33
2023-04-25T04:33:29.969Z,26.13
2023-04-25T04:36:04.425Z,26.63
2023-04-25T04:38:35.530Z,26.60
2023-04-25T04:41:07.621Z,24.60
2023-04-25T04:43:52.651Z,26.42
2023-04-25T04:46:34.925Z,26.13
2023-04-25T04:49:17.864Z,25.83
2023-04-25T04:54:44.447Z,26.58
2023-04-25T04:57:21.583Z,26.60
2023-04-25T05:00:08.240Z,27.70
2023-04-25T05:03:10.803Z,25.42
2023-04-25T05:05:59.835Z,26.65
2023-04-25T05:08:50.347Z,25.75
2023-04-25T05:11:40.949Z,25.88
2023-04-25T05:14:31.367Z,27.75
2023-04-25T05:17:36.302Z,25.35
2023-04-25T05:20:26.912Z,24.88
2023-04-25T05:23:17.537Z,27.10
2023-04-25T05:26:06.556Z,22.83
2023-04-25T05:28:55.353Z,25.85
2023-04-25T05:31:54.963Z,24.38
2023-04-25T05:34:25.524Z,25.70
2023-04-25T05:37:02.173Z,25.05
2023-04-25T05:39:33.788Z,25.83
2023-04-25T05:42:26.893Z,24.73
2023-04-25T05:45:21.546Z,23.30
2023-04-25T05:48:09.508Z,23.77
2023-04-25T05:51:05.700Z,24.10
2023-04-25T05:53:54.110Z,23.63
2023-04-25T05:56:25.402Z,22.63
2023-04-25T05:58:56.981Z,23.48
2023-04-25T06:01:27.469Z,22.53
2023-04-25T06:03:58.116Z,23.23
2023-04-25T06:06:31.311Z,24.15
2023-04-25T06:09:03.019Z,23.20
2023-04-25T06:11:35.373Z,22.92
2023-04-25T06:14:07.096Z,22.88
2023-04-25T06:16:41.291Z,23.13
2023-04-25T06:19:11.870Z,23.47
2023-04-25T06:21:42.429Z,23.45
2023-04-25T06:24:13.295Z,23.05
2023-04-25T06:26:44.031Z,24.27
2023-04-25T06:29:14.461Z,22.48
2023-04-25T06:31:44.906Z,23.93
2023-04-25T06:34:15.297Z,24.20
2023-04-25T06:36:45.673Z,22.97
2023-04-25T06:39:18.877Z,23.20
2023-04-25T06:41:49.409Z,23.87
2023-04-25T06:44:43.816Z,24.95
2023-04-25T06:47:15.853Z,23.40
2023-04-25T06:49:47.085Z,25.00
2023-04-25T06:52:18.185Z,24.55
2023-04-25T06:54:49.322Z,23.48
2023-04-25T06:57:45.750Z,24.50
2023-04-25T07:00:35.598Z,23.27
2023-04-25T07:03:06.131Z,23.48
2023-04-25T07:05:36.701Z,22.95
2023-04-25T07:08:07.277Z,23.00
2023-04-25T07:10:38.276Z,23.70
2023-04-25T07:13:09.233Z,23.30
2023-04-25T07:18:10.426Z,23.60
2023-04-25T07:20:40.747Z,24.27
2023-04-25T07:23:10.904Z,24.67
2023-04-25T07:25:41.401Z,24.23
2023-04-25T07:30:42.745Z,25.05
2023-04-25T07:33:13.674Z,27.63
2023-04-25T07:38:17.107Z,29.33
2023-04-25T07:40:47.730Z,29.52
2023-04-25T07:43:20.187Z,29.93
2023-04-25T07:45:58.218Z,28.08
2023-04-25T07:48:31.122Z,30.40
2023-04-25T07:51:01.423Z,29.70
2023-04-25T07:53:33.161Z,30.60
2023-04-25T07:56:09.133Z,29.77
2023-04-25T07:58:42.396Z,30.10
2023-04-25T08:01:15.038Z,29.58
2023-04-25T08:04:11.869Z,29.02
2023-04-25T08:06:57.315Z,27.83
2023-04-25T08:09:31.405Z,29.05
2023-04-25T08:12:01.954Z,28.48
2023-04-25T08:14:39.617Z,27.98
2023-04-25T08:17:11.021Z,29.15
2023-04-25T08:19:44.745Z,29.92
2023-04-25T08:22:24.917Z,28.57
2023-04-25T08:25:02.114Z,23.65
2023-04-25T08:27:32.706Z,21.25
2023-04-25T08:30:03.236Z,24.13
2023-04-25T08:32:34.704Z,23.48
2023-04-25T08:35:21.014Z,23.35
2023-04-25T08:37:53.072Z,19.42
2023-04-25T08:40:32.637Z,18.10
2023-04-25T08:43:15.257Z,17.13
2023-04-25T08:45:46.521Z,16.67
2023-04-25T08:48:39.821Z,18.17
2023-04-25T08:51:12.347Z,17.03
2023-04-25T08:53:46.400Z,18.30
2023-04-25T08:56:31.067Z,15.38
2023-04-25T08:59:01.982Z,14.68
2023-04-25T09:01:33.082Z,11.55
2023-04-25T09:04:04.981Z,10.75
2023-04-25T09:06:38.548Z,11.45
2023-04-25T09:09:11.684Z,12.75
2023-04-25T09:11:42.213Z,13.05
2023-04-25T09:14:19.248Z,12.23
2023-04-25T09:17:11.385Z,12.13
2023-04-25T09:19:44.744Z,14.13
2023-04-25T09:22:26.679Z,14.68
2023-04-25T09:24:57.314Z,12.85
2023-04-25T09:27:31.682Z,12.68
2023-04-25T09:30:19.981Z,13.52
2023-04-25T09:33:11.593Z,13.45
2023-04-25T09:35:47.132Z,13.48
2023-04-25T09:38:25.686Z,11.57
2023-04-25T09:40:56.375Z,13.27
2023-04-25T09:43:36.529Z,12.93
2023-04-25T09:46:11.768Z,13.90
2023-04-25T09:48:53.453Z,12.85
2023-04-25T09:51:34.801Z,14.27
2023-04-25T09:54:06.866Z,13.75
2023-04-25T09:56:51.080Z,14.20
2023-04-25T09:59:26.003Z,14.18
2023-04-25T10:01:59.014Z,13.68
2023-04-25T10:07:14.890Z,13.13
2023-04-25T10:09:51.192Z,13.73
2023-04-25T10:12:21.871Z,13.35
2023-04-25T10:14:52.268Z,13.63
2023-04-25T10:17:24.571Z,13.70
2023-04-25T10:19:55.860Z,12.52
2023-04-25T10:25:10.008Z,12.85
2023-04-25T10:27:40.784Z,12.82
2023-04-25T10:30:18.540Z,12.40
2023-04-25T10:32:50.835Z,12.48
2023-04-25T10:35:32.751Z,14.15
2023-04-25T10:38:04.107Z,27.05
2023-04-25T10:40:35.190Z,35.95
2023-04-25T10:43:34.755Z,39.22
2023-04-25T10:46:05.862Z,24.33
2023-04-25T10:51:19.340Z,15.40
2023-04-25T10:53:51.246Z,15.13
2023-04-25T10:56:24.572Z,16.13
2023-04-25T10:58:55.199Z,17.50
2023-04-25T11:01:31.750Z,18.05
2023-04-25T11:04:02.852Z,17.05
2023-04-25T11:06:45.742Z,17.83
2023-04-25T11:09:16.856Z,18.25
2023-04-25T11:11:47.035Z,18.95
2023-04-25T11:14:17.467Z,21.40
2023-04-25T11:16:47.803Z,23.08
2023-04-25T11:19:18.307Z,22.47
2023-04-25T11:21:48.780Z,21.47
2023-04-25T11:24:20.970Z,24.33
2023-04-25T11:26:51.714Z,24.83
2023-04-25T11:29:21.969Z,25.67
2023-04-25T11:31:52.485Z,25.58
2023-04-25T11:34:23.188Z,25.03
2023-04-25T11:36:55.475Z,24.73
2023-04-25T11:39:27.359Z,24.73
2023-04-25T11:41:59.538Z,23.63
2023-04-25T11:44:32.170Z,23.00
2023-04-25T11:47:03.504Z,24.40
2023-04-25T11:52:10.509Z,20.42
2023-04-25T11:54:41.539Z,21.80
2023-04-25T11:59:41.683Z,18.92
2023-04-25T12:02:11.810Z,18.48
2023-04-25T12:04:45.246Z,17.57
2023-04-25T12:07:16.968Z,17.77
2023-04-25T12:09:47.499Z,18.40
2023-04-25T12:12:17.794Z,16.33
2023-04-25T12:14:54.667Z,16.00
2023-04-25T12:17:26.725Z,16.52
2023-04-25T12:19:57.117Z,16.05
2023-04-25T12:22:28.308Z,15.27
2023-04-25T12:27:30.887Z,15.15
2023-04-25T12:30:01.888Z,17.00
2023-04-25T12:32:32.210Z,18.45
2023-04-25T12:35:03.492Z,18.60
2023-04-25T12:37:37.824Z,18.52
2023-04-25T12:40:10.396Z,20.92
2023-04-25T12:42:41.258Z,21.52
2023-04-25T12:45:15.928Z,22.75
2023-04-25T12:47:47.645Z,22.98
2023-04-25T12:50:21.309Z,24.05
2023-04-25T12:52:52.288Z,23.60
2023-04-25T12:55:22.927Z,23.40
2023-04-25T13:07:49.277Z,22.52
2023-04-25T13:10:19.853Z,28.88
2023-04-25T13:12:51.284Z,22.13
2023-04-25T13:15:21.909Z,22.40
2023-04-25T13:17:52.592Z,23.57
2023-04-25T13:20:26.031Z,26.23
2023-04-25T13:22:56.417Z,24.77
2023-04-25T13:25:27.184Z,24.90
2023-04-25T13:27:57.824Z,22.67
2023-04-25T13:30:28.387Z,24.35
2023-04-25T13:33:00.801Z,29.90
2023-04-25T13:35:31.217Z,22.10
2023-04-25T13:38:01.622Z,21.33
2023-04-25T13:40:32.439Z,22.53
2023-04-25T13:43:03.876Z,21.35
2023-04-25T13:45:35.135Z,20.30
2023-04-25T13:48:06.333Z,22.15
2023-04-25T13:50:36.885Z,19.13
2023-04-25T13:53:07.404Z,19.35
2023-04-25T13:55:42.565Z,20.83
2023-04-25T13:58:13.504Z,24.80
2023-04-25T14:00:46.627Z,18.58
2023-04-25T14:03:17.387Z,20.45
2023-04-25T14:05:47.800Z,19.85
2023-04-25T14:08:18.153Z,19.80
2023-04-25T14:10:49.025Z,17.77
2023-04-25T14:13:19.451Z,17.02
2023-04-25T14:15:49.920Z,18.33
2023-04-25T14:18:20.733Z,17.50
2023-04-25T14:20:51.863Z,17.75
2023-04-25T14:25:53.315Z,15.48
2023-04-25T14:28:23.911Z,15.15
2023-04-25T14:30:54.501Z,15.63
2023-04-25T14:33:27.562Z,14.18
2023-04-25T14:35:58.713Z,14.88
2023-04-25T14:38:29.162Z,13.50
2023-04-25T14:40:59.560Z,14.70
2023-04-25T14:43:30.011Z,13.00
2023-04-25T14:46:00.479Z,13.57
2023-04-25T14:48:30.985Z,12.40
2023-04-25T14:51:01.829Z,13.70
2023-04-25T14:53:32.571Z,13.50
2023-04-25T14:56:03.044Z,12.10
2023-04-25T14:58:33.621Z,12.50
2023-04-25T15:01:04.834Z,13.13
2023-04-25T15:06:06.270Z,12.83
2023-04-25T15:08:37.277Z,13.50
2023-04-25T15:11:08.793Z,13.73
2023-04-25T15:13:39.195Z,13.73
2023-04-25T15:16:10.202Z,14.27
2023-04-25T15:18:40.689Z,13.20
2023-04-25T15:21:12.219Z,14.03
2023-04-25T15:23:43.538Z,14.50
2023-04-25T15:28:46.455Z,13.93
2023-04-25T15:31:18.147Z,17.35
2023-04-25T15:33:50.376Z,16.38
2023-04-25T15:36:22.813Z,15.70
2023-04-25T15:38:54.288Z,15.35
2023-04-25T15:41:25.288Z,14.02
2023-04-25T15:43:57.428Z,13.95
2023-04-25T15:46:28.478Z,11.68
2023-04-25T15:51:30.895Z,11.02
2023-04-25T15:54:02.110Z,10.15
2023-04-25T15:56:33.357Z,11.32
2023-04-25T16:01:34.672Z,10.52
2023-04-25T16:04:05.183Z,11.10
2023-04-25T16:06:35.804Z,10.50
2023-04-25T16:09:07.076Z,10.50
2023-04-25T16:11:37.583Z,10.88
2023-04-25T16:14:07.814Z,11.07
2023-04-25T16:16:38.308Z,11.13
2023-04-25T16:19:08.699Z,10.70
2023-04-25T16:21:39.655Z,10.45
2023-04-25T16:24:10.492Z,11.25
2023-04-25T16:26:40.782Z,11.13
2023-04-25T16:29:11.421Z,10.82
2023-04-25T16:31:42.245Z,11.13
2023-04-25T16:34:12.643Z,10.55
2023-04-25T16:36:43.754Z,11.43
2023-04-25T16:39:14.103Z,11.73
2023-04-25T16:41:44.597Z,11.88
2023-04-25T16:44:15.392Z,12.47
2023-04-25T16:46:46.046Z,11.85
2023-04-25T16:49:16.376Z,10.88
2023-04-25T16:51:46.749Z,12.03
2023-04-25T16:54:16.787Z,14.18
2023-04-25T16:56:46.845Z,13.95
2023-04-25T16:59:16.890Z,12.93
2023-04-25T17:01:47.102Z,14.40
2023-04-25T17:04:17.926Z,13.10
2023-04-25T17:06:48.284Z,13.15
2023-04-25T17:09:18.687Z,14.02
2023-04-25T17:11:49.097Z,14.10
2023-04-25T17:14:19.495Z,14.57
2023-04-25T17:16:49.949Z,14.30
2023-04-25T17:19:20.212Z,13.93
2023-04-25T17:21:50.404Z,13.32
2023-04-25T17:24:20.771Z,13.30
2023-04-25T17:26:51.033Z,11.93
2023-04-25T17:29:21.856Z,13.05
2023-04-25T17:31:53.694Z,13.20
2023-04-25T17:34:24.523Z,14.35
2023-04-25T17:36:54.716Z,14.50
2023-04-25T17:39:24.958Z,13.18
2023-04-25T17:41:55.453Z,13.50
2023-04-25T17:44:25.688Z,13.27
2023-04-25T17:46:56.085Z,12.88
2023-04-25T17:49:26.530Z,14.30
2023-04-25T17:51:56.927Z,13.30
2023-04-25T17:54:27.904Z,13.10
2023-04-25T17:56:58.877Z,12.73
2023-04-25T17:59:30.454Z,12.88
2023-04-25T18:02:02.342Z,11.23
2023-04-25T18:04:32.730Z,12.02
2023-04-25T18:07:03.589Z,12.80
2023-04-25T18:09:34.699Z,12.30
2023-04-25T18:12:06.100Z,11.80
2023-04-25T18:14:38.107Z,12.23
2023-04-25T18:17:09.606Z,12.68
2023-04-25T18:19:39.974Z,12.60
2023-04-25T18:22:10.461Z,12.93
2023-04-25T18:24:40.768Z,12.37
2023-04-25T18:27:10.989Z,14.18
2023-04-25T18:29:41.366Z,13.07
2023-04-25T18:32:11.627Z,14.25
2023-04-25T18:34:46.126Z,13.32
2023-04-25T18:37:16.800Z,14.82
2023-04-25T18:39:47.614Z,13.68
2023-04-25T18:42:18.873Z,14.63
2023-04-25T18:47:19.775Z,17.85
2023-04-25T18:49:50.306Z,15.55
2023-04-25T18:52:21.603Z,16.67
2023-04-25T18:54:52.443Z,16.80
2023-04-25T18:57:23.244Z,16.55
2023-04-25T18:59:53.425Z,17.20
2023-04-25T19:02:25.124Z,16.63
2023-04-25T19:04:55.480Z,15.40
2023-04-25T19:07:26.389Z,17.60
2023-04-25T19:09:57.464Z,15.65
2023-04-25T19:12:28.835Z,16.27
2023-04-25T19:14:59.179Z,15.93
2023-04-25T19:17:30.578Z,15.43
2023-04-25T19:20:01.054Z,15.98
2023-04-25T19:22:31.303Z,15.47
2023-04-25T19:25:09.808Z,15.70
2023-04-25T19:27:41.611Z,15.48
2023-04-25T19:30:13.051Z,14.85
2023-04-25T19:32:43.368Z,15.50
2023-04-25T19:35:14.041Z,15.63
2023-04-25T19:37:48.606Z,16.23
2023-04-25T19:40:20.718Z,15.57
2023-04-25T19:42:51.066Z,16.40
2023-04-25T19:45:21.218Z,16.42
2023-04-25T19:47:51.633Z,15.93
2023-04-25T19:50:22.044Z,17.13
2023-04-25T19:52:52.196Z,15.52
2023-04-25T19:55:22.913Z,16.65
2023-04-25T19:57:53.908Z,18.23
2023-04-25T20:00:24.623Z,15.43
2023-04-25T20:02:54.935Z,15.95
2023-04-25T20:05:26.054Z,17.30
2023-04-25T20:07:56.460Z,16.33
2023-04-25T20:10:27.062Z,16.40
2023-04-25T20:12:57.342Z,19.00
2023-04-25T20:15:27.736Z,16.60
2023-04-25T20:17:58.246Z,18.38
2023-04-25T20:20:28.634Z,18.83
2023-04-25T20:22:59.031Z,18.92
2023-04-25T20:25:29.431Z,19.00
2023-04-25T20:27:59.694Z,17.67
2023-04-25T20:30:29.940Z,18.85
2023-04-25T20:33:00.664Z,18.70
2023-04-25T20:35:30.867Z,20.37
2023-04-25T20:38:01.208Z,18.92
2023-04-25T20:40:31.502Z,18.65
2023-04-25T20:43:01.751Z,18.02
2023-04-25T20:45:34.660Z,18.67
2023-04-25T20:48:05.070Z,19.70
2023-04-25T20:50:37.412Z,19.58
2023-04-25T20:53:08.058Z,20.13
2023-04-25T20:55:38.967Z,19.73
2023-04-25T20:58:09.609Z,19.20
2023-04-25T21:00:41.370Z,19.70
2023-04-25T21:03:12.842Z,19.80
2023-04-25T21:05:43.374Z,18.63
2023-04-25T21:08:13.691Z,18.50
2023-04-25T21:10:44.495Z,19.10
2023-04-25T21:13:15.186Z,20.17
2023-04-25T21:15:45.865Z,19.63
2023-04-25T21:18:16.376Z,18.08
2023-04-25T21:20:46.885Z,19.07
2023-04-25T21:23:18.020Z,19.13
2023-04-25T21:25:49.737Z,19.98
2023-04-25T21:28:20.129Z,19.20
2023-04-25T21:30:50.549Z,20.40
2023-04-25T21:33:21.206Z,20.20
2023-04-25T21:35:51.706Z,20.02
2023-04-25T21:38:22.013Z,19.67
2023-04-25T21:40:52.542Z,19.77
2023-04-25T21:43:22.854Z,19.10
2023-04-25T21:48:27.577Z,20.45
2023-04-25T21:50:58.552Z,19.92
2023-04-25T21:53:31.646Z,21.02
2023-04-25T21:56:01.984Z,23.77
2023-04-25T21:58:32.334Z,22.45
2023-04-25T22:01:02.507Z,21.50
2023-04-25T22:03:34.000Z,22.33
2023-04-25T22:06:06.180Z,22.60
2023-04-25T22:08:36.395Z,20.95
2023-04-25T22:11:09.667Z,20.17
2023-04-25T22:13:40.018Z,22.45
2023-04-25T22:16:14.336Z,21.47
2023-04-25T22:18:44.758Z,21.45
2023-04-25T22:21:15.383Z,21.17
2023-04-25T22:23:45.614Z,21.00
2023-04-25T22:26:15.926Z,20.50
2023-04-25T22:28:46.915Z,21.00
2023-04-25T22:31:17.757Z,23.10
2023-04-25T22:33:49.727Z,21.88
2023-04-25T22:36:22.792Z,21.13
2023-04-25T22:38:54.835Z,22.35
2023-04-25T22:41:26.060Z,20.42
2023-04-25T22:43:56.499Z,21.30
2023-04-25T22:46:27.055Z,21.27
2023-04-25T22:48:58.311Z,21.13
2023-04-25T22:51:28.682Z,21.77
2023-04-25T22:56:04.457Z,22.90
2023-04-25T22:58:35.217Z,23.17
2023-04-25T23:01:06.236Z,26.38
2023-04-25T23:03:36.750Z,24.10
2023-04-25T23:06:08.210Z,25.77
2023-04-25T23:08:39.115Z,26.75
2023-04-25T23:11:10.346Z,25.80
2023-04-25T23:13:40.601Z,26.00
2023-04-25T23:16:11.985Z,25.60
2023-04-25T23:18:43.336Z,26.42
2023-04-25T23:21:14.539Z,25.50
2023-04-25T23:26:14.628Z,24.15
2023-04-25T23:28:45.308Z,24.58
2023-04-25T23:31:15.833Z,24.17
2023-04-25T23:33:46.348Z,22.87
2023-04-25T23:36:26.208Z,23.73
2023-04-25T23:38:58.305Z,23.60
2023-04-25T23:41:28.588Z,23.58
2023-04-25T23:43:58.885Z,24.17
2023-04-25T23:46:30.744Z,23.13
2023-04-25T23:49:01.112Z,23.52
2023-04-25T23:51:31.838Z,23.70
2023-04-25T23:54:05.182Z,23.80
2023-04-25T23:56:35.639Z,25.23
2023-04-25T23:59:06.393Z,24.85
